San Diego, California
Current Conditions -  °F | °C
As of 4:51 PM on Monday 20 Oct 2014 (Local Time) from KSAN Reporting Station
Few Clouds Few Clouds  
Wind Chill: 72°   Ceiling: Unl
Heat Index: 72°   Visibility: 10mi
Dew Point: 60°   Wind: 9mph
Humidity: 66%   Direction: 290°WNW
Pressure: 29.89"   Gusts: 17mph
Location:  32.72°N, 117.16°W
Report Text: KSAN 202351Z 29008G15KT 10SM FEW022 22/16 A2989 RMK AO2 SLP119 T02220156 10228 20217 56007
Loading
Personal Weather Stations






























Interactive Weather Map New forecast layout! Learn more

10-Day Weather Forecast

Advertisements
Track Severe Weather on mobile